sensor_id;sensor_type;location;lat;lon;timestamp;P1;durP1;ratioP1;P2;durP2;ratioP2
37595;SDS011;23442;48.182;11.552;2022-07-24T00:01:48;17.13;;;10.02;;
37595;SDS011;23442;48.182;11.552;2022-07-24T00:04:14;25.88;;;12.32;;
37595;SDS011;23442;48.182;11.552;2022-07-24T00:06:40;26.33;;;12.43;;
37595;SDS011;23442;48.182;11.552;2022-07-24T00:09:07;21.55;;;10.50;;
37595;SDS011;23442;48.182;11.552;2022-07-24T00:11:33;26.25;;;11.85;;
37595;SDS011;23442;48.182;11.552;2022-07-24T00:13:59;12.95;;;9.48;;
37595;SDS011;23442;48.182;11.552;2022-07-24T00:16:26;18.92;;;10.07;;
37595;SDS011;23442;48.182;11.552;2022-07-24T00:18:52;20.65;;;10.48;;
37595;SDS011;23442;48.182;11.552;2022-07-24T00:21:18;20.67;;;10.25;;
37595;SDS011;23442;48.182;11.552;2022-07-24T00:23:44;23.55;;;11.40;;
37595;SDS011;23442;48.182;11.552;2022-07-24T00:26:11;20.35;;;10.93;;
37595;SDS011;23442;48.182;11.552;2022-07-24T00:28:38;18.67;;;10.48;;
37595;SDS011;23442;48.182;11.552;2022-07-24T00:31:04;22.15;;;11.27;;
37595;SDS011;23442;48.182;11.552;2022-07-24T00:33:31;19.23;;;10.30;;
37595;SDS011;23442;48.182;11.552;2022-07-24T00:35:57;36.78;;;13.98;;
37595;SDS011;23442;48.182;11.552;2022-07-24T00:38:24;17.85;;;10.25;;
37595;SDS011;23442;48.182;11.552;2022-07-24T00:40:50;19.48;;;9.85;;
37595;SDS011;23442;48.182;11.552;2022-07-24T00:43:16;23.95;;;11.02;;
37595;SDS011;23442;48.182;11.552;2022-07-24T00:45:43;21.42;;;10.68;;
37595;SDS011;23442;48.182;11.552;2022-07-24T00:48:10;24.10;;;11.35;;
37595;SDS011;23442;48.182;11.552;2022-07-24T00:50:36;29.23;;;12.30;;
37595;SDS011;23442;48.182;11.552;2022-07-24T00:53:03;36.00;;;13.80;;
37595;SDS011;23442;48.182;11.552;2022-07-24T00:55:29;24.90;;;11.00;;
37595;SDS011;23442;48.182;11.552;2022-07-24T00:57:56;24.23;;;11.43;;
37595;SDS011;23442;48.182;11.552;2022-07-24T01:00:22;26.08;;;11.63;;
37595;SDS011;23442;48.182;11.552;2022-07-24T01:02:49;21.15;;;10.70;;
37595;SDS011;23442;48.182;11.552;2022-07-24T01:05:16;16.52;;;9.88;;
37595;SDS011;23442;48.182;11.552;2022-07-24T01:07:42;20.00;;;11.13;;
37595;SDS011;23442;48.182;11.552;2022-07-24T01:10:08;24.63;;;11.30;;
37595;SDS011;23442;48.182;11.552;2022-07-24T01:12:37;17.17;;;10.00;;
37595;SDS011;23442;48.182;11.552;2022-07-24T01:15:06;21.13;;;11.15;;
37595;SDS011;23442;48.182;11.552;2022-07-24T01:17:36;19.13;;;10.93;;
37595;SDS011;23442;48.182;11.552;2022-07-24T01:20:04;12.43;;;9.25;;
37595;SDS011;23442;48.182;11.552;2022-07-24T01:22:32;19.88;;;10.63;;
37595;SDS011;23442;48.182;11.552;2022-07-24T01:24:59;14.35;;;10.45;;
37595;SDS011;23442;48.182;11.552;2022-07-24T01:27:25;18.85;;;10.63;;
37595;SDS011;23442;48.182;11.552;2022-07-24T01:29:51;21.52;;;11.00;;
37595;SDS011;23442;48.182;11.552;2022-07-24T01:32:18;19.20;;;10.30;;
37595;SDS011;23442;48.182;11.552;2022-07-24T01:34:44;22.73;;;11.88;;
37595;SDS011;23442;48.182;11.552;2022-07-24T01:37:10;17.38;;;10.43;;
37595;SDS011;23442;48.182;11.552;2022-07-24T01:39:36;17.77;;;10.52;;
37595;SDS011;23442;48.182;11.552;2022-07-24T01:42:03;17.83;;;10.38;;
37595;SDS011;23442;48.182;11.552;2022-07-24T01:44:29;32.53;;;13.23;;
37595;SDS011;23442;48.182;11.552;2022-07-24T01:46:55;13.98;;;10.10;;
37595;SDS011;23442;48.182;11.552;2022-07-24T01:49:21;21.65;;;11.63;;
37595;SDS011;23442;48.182;11.552;2022-07-24T01:51:47;24.40;;;11.90;;
37595;SDS011;23442;48.182;11.552;2022-07-24T01:54:13;20.48;;;11.35;;
37595;SDS011;23442;48.182;11.552;2022-07-24T01:56:39;31.65;;;13.43;;
37595;SDS011;23442;48.182;11.552;2022-07-24T01:59:05;20.65;;;10.85;;
37595;SDS011;23442;48.182;11.552;2022-07-24T02:01:32;21.48;;;11.05;;
37595;SDS011;23442;48.182;11.552;2022-07-24T02:03:59;19.60;;;10.75;;
37595;SDS011;23442;48.182;11.552;2022-07-24T02:06:25;23.05;;;11.30;;
37595;SDS011;23442;48.182;11.552;2022-07-24T02:08:51;23.10;;;11.70;;
37595;SDS011;23442;48.182;11.552;2022-07-24T02:11:17;18.92;;;10.63;;
37595;SDS011;23442;48.182;11.552;2022-07-24T02:13:44;19.95;;;10.80;;
37595;SDS011;23442;48.182;11.552;2022-07-24T02:16:10;16.75;;;11.10;;
37595;SDS011;23442;48.182;11.552;2022-07-24T02:18:37;19.30;;;10.55;;
37595;SDS011;23442;48.182;11.552;2022-07-24T02:21:03;23.33;;;11.60;;
37595;SDS011;23442;48.182;11.552;2022-07-24T02:23:29;18.02;;;10.65;;
37595;SDS011;23442;48.182;11.552;2022-07-24T02:25:55;32.38;;;13.43;;
37595;SDS011;23442;48.182;11.552;2022-07-24T02:28:21;20.42;;;10.60;;
37595;SDS011;23442;48.182;11.552;2022-07-24T02:30:47;22.23;;;10.45;;
37595;SDS011;23442;48.182;11.552;2022-07-24T02:33:14;16.92;;;10.07;;
37595;SDS011;23442;48.182;11.552;2022-07-24T02:35:40;23.73;;;11.20;;
37595;SDS011;23442;48.182;11.552;2022-07-24T02:38:06;16.88;;;9.82;;
37595;SDS011;23442;48.182;11.552;2022-07-24T02:40:32;21.25;;;10.75;;
37595;SDS011;23442;48.182;11.552;2022-07-24T02:42:58;18.80;;;10.43;;
37595;SDS011;23442;48.182;11.552;2022-07-24T02:45:24;19.85;;;10.68;;
37595;SDS011;23442;48.182;11.552;2022-07-24T02:47:51;19.00;;;10.50;;
37595;SDS011;23442;48.182;11.552;2022-07-24T02:50:19;23.45;;;11.02;;
37595;SDS011;23442;48.182;11.552;2022-07-24T02:52:47;26.80;;;11.75;;
37595;SDS011;23442;48.182;11.552;2022-07-24T02:55:14;20.58;;;10.95;;
37595;SDS011;23442;48.182;11.552;2022-07-24T02:57:40;24.38;;;11.25;;
37595;SDS011;23442;48.182;11.552;2022-07-24T03:00:08;20.70;;;11.23;;
37595;SDS011;23442;48.182;11.552;2022-07-24T03:02:35;20.30;;;10.82;;
37595;SDS011;23442;48.182;11.552;2022-07-24T03:05:02;26.58;;;11.93;;
37595;SDS011;23442;48.182;11.552;2022-07-24T03:07:29;18.50;;;10.73;;
37595;SDS011;23442;48.182;11.552;2022-07-24T03:09:56;22.23;;;10.88;;
37595;SDS011;23442;48.182;11.552;2022-07-24T03:12:22;23.88;;;11.00;;
37595;SDS011;23442;48.182;11.552;2022-07-24T03:14:48;19.17;;;10.70;;
37595;SDS011;23442;48.182;11.552;2022-07-24T03:17:14;16.60;;;10.45;;
37595;SDS011;23442;48.182;11.552;2022-07-24T03:19:41;23.23;;;11.70;;
37595;SDS011;23442;48.182;11.552;2022-07-24T03:22:07;16.75;;;10.35;;
37595;SDS011;23442;48.182;11.552;2022-07-24T03:24:33;23.95;;;11.27;;
37595;SDS011;23442;48.182;11.552;2022-07-24T03:27:02;20.95;;;10.60;;
37595;SDS011;23442;48.182;11.552;2022-07-24T03:29:28;20.58;;;11.02;;
37595;SDS011;23442;48.182;11.552;2022-07-24T03:31:54;26.75;;;12.25;;
37595;SDS011;23442;48.182;11.552;2022-07-24T03:34:21;16.00;;;9.98;;
37595;SDS011;23442;48.182;11.552;2022-07-24T03:36:47;18.25;;;10.63;;
37595;SDS011;23442;48.182;11.552;2022-07-24T03:39:13;18.83;;;11.15;;
37595;SDS011;23442;48.182;11.552;2022-07-24T03:41:39;22.50;;;11.95;;
37595;SDS011;23442;48.182;11.552;2022-07-24T03:44:05;21.58;;;11.68;;
37595;SDS011;23442;48.182;11.552;2022-07-24T03:46:32;21.85;;;10.93;;
37595;SDS011;23442;48.182;11.552;2022-07-24T03:48:58;22.15;;;11.23;;
37595;SDS011;23442;48.182;11.552;2022-07-24T03:51:24;20.02;;;10.50;;
37595;SDS011;23442;48.182;11.552;2022-07-24T03:53:50;21.50;;;11.10;;
37595;SDS011;23442;48.182;11.552;2022-07-24T03:56:16;19.08;;;10.68;;
37595;SDS011;23442;48.182;11.552;2022-07-24T03:58:42;20.50;;;10.68;;
37595;SDS011;23442;48.182;11.552;2022-07-24T04:01:09;17.02;;;11.18;;
37595;SDS011;23442;48.182;11.552;2022-07-24T04:03:35;22.25;;;11.52;;
37595;SDS011;23442;48.182;11.552;2022-07-24T04:06:02;25.65;;;11.95;;
37595;SDS011;23442;48.182;11.552;2022-07-24T04:08:30;19.90;;;10.68;;
37595;SDS011;23442;48.182;11.552;2022-07-24T04:10:57;21.52;;;11.82;;
37595;SDS011;23442;48.182;11.552;2022-07-24T04:13:26;19.08;;;10.57;;
37595;SDS011;23442;48.182;11.552;2022-07-24T04:15:54;36.80;;;14.77;;
37595;SDS011;23442;48.182;11.552;2022-07-24T04:18:20;19.90;;;11.30;;
37595;SDS011;23442;48.182;11.552;2022-07-24T04:20:47;24.85;;;12.45;;
37595;SDS011;23442;48.182;11.552;2022-07-24T04:23:13;20.20;;;11.20;;
37595;SDS011;23442;48.182;11.552;2022-07-24T04:25:39;27.23;;;12.52;;
37595;SDS011;23442;48.182;11.552;2022-07-24T04:28:06;19.80;;;10.82;;
37595;SDS011;23442;48.182;11.552;2022-07-24T04:30:32;19.30;;;11.73;;
37595;SDS011;23442;48.182;11.552;2022-07-24T04:32:58;24.65;;;12.00;;
37595;SDS011;23442;48.182;11.552;2022-07-24T04:35:24;30.15;;;12.75;;
37595;SDS011;23442;48.182;11.552;2022-07-24T04:37:50;23.15;;;12.55;;
37595;SDS011;23442;48.182;11.552;2022-07-24T04:40:16;26.73;;;12.57;;
37595;SDS011;23442;48.182;11.552;2022-07-24T04:42:42;22.85;;;12.10;;
37595;SDS011;23442;48.182;11.552;2022-07-24T04:45:09;28.20;;;13.68;;
37595;SDS011;23442;48.182;11.552;2022-07-24T04:47:35;25.05;;;12.68;;
37595;SDS011;23442;48.182;11.552;2022-07-24T04:50:02;26.15;;;12.90;;
37595;SDS011;23442;48.182;11.552;2022-07-24T04:52:30;26.85;;;13.43;;
37595;SDS011;23442;48.182;11.552;2022-07-24T04:54:56;29.73;;;13.70;;
37595;SDS011;23442;48.182;11.552;2022-07-24T04:57:22;22.20;;;12.95;;
37595;SDS011;23442;48.182;11.552;2022-07-24T04:59:48;30.60;;;14.48;;
37595;SDS011;23442;48.182;11.552;2022-07-24T05:02:15;23.58;;;12.88;;
37595;SDS011;23442;48.182;11.552;2022-07-24T05:04:41;28.85;;;14.05;;
37595;SDS011;23442;48.182;11.552;2022-07-24T05:07:07;30.70;;;15.38;;
37595;SDS011;23442;48.182;11.552;2022-07-24T05:09:33;31.08;;;14.07;;
37595;SDS011;23442;48.182;11.552;2022-07-24T05:11:59;30.00;;;14.00;;
37595;SDS011;23442;48.182;11.552;2022-07-24T05:14:25;24.42;;;13.18;;
37595;SDS011;23442;48.182;11.552;2022-07-24T05:16:51;27.20;;;13.60;;
37595;SDS011;23442;48.182;11.552;2022-07-24T05:19:17;24.38;;;12.95;;
37595;SDS011;23442;48.182;11.552;2022-07-24T05:21:44;22.35;;;12.77;;
37595;SDS011;23442;48.182;11.552;2022-07-24T05:24:10;27.30;;;13.57;;
37595;SDS011;23442;48.182;11.552;2022-07-24T05:26:36;27.65;;;13.90;;
37595;SDS011;23442;48.182;11.552;2022-07-24T05:29:03;32.38;;;14.40;;
37595;SDS011;23442;48.182;11.552;2022-07-24T05:31:31;23.10;;;13.20;;
37595;SDS011;23442;48.182;11.552;2022-07-24T05:33:57;30.90;;;14.50;;
37595;SDS011;23442;48.182;11.552;2022-07-24T05:36:24;29.08;;;14.13;;
37595;SDS011;23442;48.182;11.552;2022-07-24T05:38:50;30.77;;;14.38;;
37595;SDS011;23442;48.182;11.552;2022-07-24T05:41:16;16.52;;;11.90;;
37595;SDS011;23442;48.182;11.552;2022-07-24T05:43:42;25.00;;;13.85;;
37595;SDS011;23442;48.182;11.552;2022-07-24T05:46:08;27.00;;;13.73;;
37595;SDS011;23442;48.182;11.552;2022-07-24T05:48:34;25.92;;;14.25;;
37595;SDS011;23442;48.182;11.552;2022-07-24T05:51:01;29.95;;;14.30;;
37595;SDS011;23442;48.182;11.552;2022-07-24T05:53:27;32.53;;;15.68;;
37595;SDS011;23442;48.182;11.552;2022-07-24T05:55:53;38.40;;;16.02;;
37595;SDS011;23442;48.182;11.552;2022-07-24T05:58:19;24.40;;;13.27;;
37595;SDS011;23442;48.182;11.552;2022-07-24T06:00:46;18.73;;;12.38;;
37595;SDS011;23442;48.182;11.552;2022-07-24T06:03:12;26.90;;;12.90;;
37595;SDS011;23442;48.182;11.552;2022-07-24T06:05:38;32.75;;;15.23;;
37595;SDS011;23442;48.182;11.552;2022-07-24T06:08:05;31.25;;;14.45;;
37595;SDS011;23442;48.182;11.552;2022-07-24T06:10:31;20.00;;;13.18;;
37595;SDS011;23442;48.182;11.552;2022-07-24T06:12:57;34.47;;;14.40;;
37595;SDS011;23442;48.182;11.552;2022-07-24T06:15:23;32.38;;;14.23;;
37595;SDS011;23442;48.182;11.552;2022-07-24T06:17:49;23.60;;;12.27;;
37595;SDS011;23442;48.182;11.552;2022-07-24T06:20:16;29.80;;;13.38;;
37595;SDS011;23442;48.182;11.552;2022-07-24T06:22:44;25.15;;;12.65;;
37595;SDS011;23442;48.182;11.552;2022-07-24T06:25:11;24.17;;;12.85;;
37595;SDS011;23442;48.182;11.552;2022-07-24T06:27:44;19.73;;;12.07;;
37595;SDS011;23442;48.182;11.552;2022-07-24T06:30:15;26.23;;;12.43;;
37595;SDS011;23442;48.182;11.552;2022-07-24T06:32:47;23.77;;;12.30;;
37595;SDS011;23442;48.182;11.552;2022-07-24T06:35:13;24.08;;;12.43;;
37595;SDS011;23442;48.182;11.552;2022-07-24T06:37:40;26.05;;;12.40;;
37595;SDS011;23442;48.182;11.552;2022-07-24T06:40:07;23.70;;;11.65;;
37595;SDS011;23442;48.182;11.552;2022-07-24T06:42:33;23.48;;;11.93;;
37595;SDS011;23442;48.182;11.552;2022-07-24T06:44:59;27.88;;;12.13;;
37595;SDS011;23442;48.182;11.552;2022-07-24T06:47:26;21.30;;;11.75;;
37595;SDS011;23442;48.182;11.552;2022-07-24T06:49:55;22.55;;;11.75;;
37595;SDS011;23442;48.182;11.552;2022-07-24T06:52:21;23.13;;;13.05;;
37595;SDS011;23442;48.182;11.552;2022-07-24T06:54:48;23.38;;;12.00;;
37595;SDS011;23442;48.182;11.552;2022-07-24T06:57:17;27.40;;;12.40;;
37595;SDS011;23442;48.182;11.552;2022-07-24T06:59:44;20.75;;;10.98;;
37595;SDS011;23442;48.182;11.552;2022-07-24T07:02:13;28.20;;;13.50;;
37595;SDS011;23442;48.182;11.552;2022-07-24T07:04:39;21.48;;;11.90;;
37595;SDS011;23442;48.182;11.552;2022-07-24T07:07:15;25.40;;;12.32;;
37595;SDS011;23442;48.182;11.552;2022-07-24T07:09:42;21.65;;;12.23;;
37595;SDS011;23442;48.182;11.552;2022-07-24T07:12:11;24.40;;;12.50;;
37595;SDS011;23442;48.182;11.552;2022-07-24T07:14:37;23.35;;;12.23;;
37595;SDS011;23442;48.182;11.552;2022-07-24T07:17:03;27.25;;;13.20;;
37595;SDS011;23442;48.182;11.552;2022-07-24T07:19:29;21.42;;;11.30;;
37595;SDS011;23442;48.182;11.552;2022-07-24T07:22:02;23.02;;;11.77;;
37595;SDS011;23442;48.182;11.552;2022-07-24T07:24:28;23.65;;;11.80;;
37595;SDS011;23442;48.182;11.552;2022-07-24T07:26:54;25.02;;;12.00;;
37595;SDS011;23442;48.182;11.552;2022-07-24T07:29:20;38.42;;;15.30;;
37595;SDS011;23442;48.182;11.552;2022-07-24T07:31:46;17.23;;;11.75;;
37595;SDS011;23442;48.182;11.552;2022-07-24T07:34:15;18.92;;;11.30;;
37595;SDS011;23442;48.182;11.552;2022-07-24T07:36:41;25.83;;;12.40;;
37595;SDS011;23442;48.182;11.552;2022-07-24T07:39:08;23.25;;;11.85;;
37595;SDS011;23442;48.182;11.552;2022-07-24T07:41:34;25.98;;;12.60;;
37595;SDS011;23442;48.182;11.552;2022-07-24T07:44:03;25.27;;;12.07;;
37595;SDS011;23442;48.182;11.552;2022-07-24T07:46:29;30.13;;;12.98;;
37595;SDS011;23442;48.182;11.552;2022-07-24T07:48:56;37.25;;;13.73;;
37595;SDS011;23442;48.182;11.552;2022-07-24T07:51:22;34.08;;;13.35;;
37595;SDS011;23442;48.182;11.552;2022-07-24T07:53:48;29.45;;;13.23;;
37595;SDS011;23442;48.182;11.552;2022-07-24T07:56:14;33.40;;;13.60;;
37595;SDS011;23442;48.182;11.552;2022-07-24T07:58:40;30.05;;;14.80;;
37595;SDS011;23442;48.182;11.552;2022-07-24T08:01:07;30.95;;;14.13;;
37595;SDS011;23442;48.182;11.552;2022-07-24T08:03:33;33.20;;;15.05;;
37595;SDS011;23442;48.182;11.552;2022-07-24T08:05:59;62.38;;;27.13;;
37595;SDS011;23442;48.182;11.552;2022-07-24T08:08:26;47.08;;;22.05;;
37595;SDS011;23442;48.182;11.552;2022-07-24T08:10:53;44.10;;;17.98;;
37595;SDS011;23442;48.182;11.552;2022-07-24T08:13:19;30.38;;;15.55;;
37595;SDS011;23442;48.182;11.552;2022-07-24T08:15:45;43.00;;;19.23;;
37595;SDS011;23442;48.182;11.552;2022-07-24T08:18:11;43.70;;;19.67;;
37595;SDS011;23442;48.182;11.552;2022-07-24T08:20:37;32.25;;;13.07;;
37595;SDS011;23442;48.182;11.552;2022-07-24T08:23:03;40.20;;;16.33;;
37595;SDS011;23442;48.182;11.552;2022-07-24T08:25:30;26.60;;;12.60;;
37595;SDS011;23442;48.182;11.552;2022-07-24T08:27:56;28.17;;;14.63;;
37595;SDS011;23442;48.182;11.552;2022-07-24T08:30:22;22.67;;;11.27;;
37595;SDS011;23442;48.182;11.552;2022-07-24T08:32:52;32.08;;;14.52;;
37595;SDS011;23442;48.182;11.552;2022-07-24T08:35:18;23.90;;;13.38;;
37595;SDS011;23442;48.182;11.552;2022-07-24T08:37:45;27.92;;;12.77;;
37595;SDS011;23442;48.182;11.552;2022-07-24T08:40:12;32.63;;;13.82;;
37595;SDS011;23442;48.182;11.552;2022-07-24T08:42:38;37.90;;;15.75;;
37595;SDS011;23442;48.182;11.552;2022-07-24T08:45:05;34.42;;;14.57;;
37595;SDS011;23442;48.182;11.552;2022-07-24T08:47:32;27.58;;;12.57;;
37595;SDS011;23442;48.182;11.552;2022-07-24T08:49:58;22.38;;;12.38;;
37595;SDS011;23442;48.182;11.552;2022-07-24T08:52:27;27.38;;;13.38;;
37595;SDS011;23442;48.182;11.552;2022-07-24T08:54:56;25.35;;;12.23;;
37595;SDS011;23442;48.182;11.552;2022-07-24T08:57:23;31.98;;;12.93;;
37595;SDS011;23442;48.182;11.552;2022-07-24T08:59:49;23.20;;;11.57;;
37595;SDS011;23442;48.182;11.552;2022-07-24T09:02:15;22.83;;;12.15;;
37595;SDS011;23442;48.182;11.552;2022-07-24T09:04:42;22.10;;;10.75;;
37595;SDS011;23442;48.182;11.552;2022-07-24T09:07:13;22.25;;;10.70;;
37595;SDS011;23442;48.182;11.552;2022-07-24T09:09:41;25.67;;;12.40;;
37595;SDS011;23442;48.182;11.552;2022-07-24T09:12:11;40.03;;;14.57;;
37595;SDS011;23442;48.182;11.552;2022-07-24T09:14:42;31.20;;;13.75;;
37595;SDS011;23442;48.182;11.552;2022-07-24T09:17:10;20.08;;;10.48;;
37595;SDS011;23442;48.182;11.552;2022-07-24T09:19:58;33.58;;;13.05;;
37595;SDS011;23442;48.182;11.552;2022-07-24T09:22:32;22.23;;;10.38;;
37595;SDS011;23442;48.182;11.552;2022-07-24T09:27:56;27.00;;;11.70;;
37595;SDS011;23442;48.182;11.552;2022-07-24T09:32:51;34.38;;;13.10;;
37595;SDS011;23442;48.182;11.552;2022-07-24T09:35:22;42.50;;;14.63;;
37595;SDS011;23442;48.182;11.552;2022-07-24T09:37:55;25.92;;;12.60;;
37595;SDS011;23442;48.182;11.552;2022-07-24T09:40:23;32.75;;;15.25;;
37595;SDS011;23442;48.182;11.552;2022-07-24T09:48:48;42.10;;;14.65;;
37595;SDS011;23442;48.182;11.552;2022-07-24T09:51:22;23.50;;;11.32;;
37595;SDS011;23442;48.182;11.552;2022-07-24T09:53:56;24.52;;;12.13;;
37595;SDS011;23442;48.182;11.552;2022-07-24T09:56:23;25.20;;;11.68;;
37595;SDS011;23442;48.182;11.552;2022-07-24T09:58:51;22.27;;;11.18;;
37595;SDS011;23442;48.182;11.552;2022-07-24T10:01:21;20.63;;;10.65;;
37595;SDS011;23442;48.182;11.552;2022-07-24T10:03:51;25.00;;;11.70;;
37595;SDS011;23442;48.182;11.552;2022-07-24T10:06:19;19.42;;;10.63;;
37595;SDS011;23442;48.182;11.552;2022-07-24T10:08:47;15.75;;;10.25;;
37595;SDS011;23442;48.182;11.552;2022-07-24T10:11:15;15.07;;;9.50;;
37595;SDS011;23442;48.182;11.552;2022-07-24T10:13:42;22.58;;;10.82;;
37595;SDS011;23442;48.182;11.552;2022-07-24T10:18:45;21.70;;;10.98;;
37595;SDS011;23442;48.182;11.552;2022-07-24T10:21:33;20.73;;;10.38;;
37595;SDS011;23442;48.182;11.552;2022-07-24T10:26:48;16.23;;;9.60;;
37595;SDS011;23442;48.182;11.552;2022-07-24T10:29:16;25.25;;;10.68;;
37595;SDS011;23442;48.182;11.552;2022-07-24T10:31:43;20.40;;;11.05;;
37595;SDS011;23442;48.182;11.552;2022-07-24T10:34:13;18.83;;;10.65;;
37595;SDS011;23442;48.182;11.552;2022-07-24T10:37:23;18.20;;;10.38;;
37595;SDS011;23442;48.182;11.552;2022-07-24T10:42:28;22.42;;;11.25;;
37595;SDS011;23442;48.182;11.552;2022-07-24T10:47:44;25.83;;;12.73;;
37595;SDS011;23442;48.182;11.552;2022-07-24T10:50:11;21.85;;;12.23;;
37595;SDS011;23442;48.182;11.552;2022-07-24T10:52:39;21.38;;;11.60;;
37595;SDS011;23442;48.182;11.552;2022-07-24T10:55:22;18.63;;;10.88;;
37595;SDS011;23442;48.182;11.552;2022-07-24T10:57:56;23.10;;;11.98;;
37595;SDS011;23442;48.182;11.552;2022-07-24T11:00:43;18.50;;;10.88;;
37595;SDS011;23442;48.182;11.552;2022-07-24T11:03:18;19.67;;;10.75;;
37595;SDS011;23442;48.182;11.552;2022-07-24T11:11:21;22.58;;;11.45;;
37595;SDS011;23442;48.182;11.552;2022-07-24T11:13:52;19.27;;;11.40;;
37595;SDS011;23442;48.182;11.552;2022-07-24T11:16:23;20.42;;;10.60;;
37595;SDS011;23442;48.182;11.552;2022-07-24T11:21:27;21.02;;;10.68;;
37595;SDS011;23442;48.182;11.552;2022-07-24T11:29:25;22.58;;;11.65;;
37595;SDS011;23442;48.182;11.552;2022-07-24T11:31:59;23.13;;;11.57;;
37595;SDS011;23442;48.182;11.552;2022-07-24T11:34:31;20.67;;;11.32;;
37595;SDS011;23442;48.182;11.552;2022-07-24T11:36:58;24.10;;;12.25;;
37595;SDS011;23442;48.182;11.552;2022-07-24T11:39:29;17.85;;;10.52;;
37595;SDS011;23442;48.182;11.552;2022-07-24T11:42:03;29.73;;;12.55;;
37595;SDS011;23442;48.182;11.552;2022-07-24T11:44:33;24.70;;;13.07;;
37595;SDS011;23442;48.182;11.552;2022-07-24T11:47:09;27.42;;;13.02;;
37595;SDS011;23442;48.182;11.552;2022-07-24T11:49:47;18.48;;;10.18;;
37595;SDS011;23442;48.182;11.552;2022-07-24T11:54:40;23.63;;;11.65;;
37595;SDS011;23442;48.182;11.552;2022-07-24T11:57:15;25.33;;;11.93;;
37595;SDS011;23442;48.182;11.552;2022-07-24T11:59:43;23.73;;;12.32;;
37595;SDS011;23442;48.182;11.552;2022-07-24T12:02:09;23.75;;;11.30;;
37595;SDS011;23442;48.182;11.552;2022-07-24T12:04:37;19.30;;;10.73;;
37595;SDS011;23442;48.182;11.552;2022-07-24T12:07:05;22.70;;;11.50;;
37595;SDS011;23442;48.182;11.552;2022-07-24T12:09:32;22.58;;;11.30;;
37595;SDS011;23442;48.182;11.552;2022-07-24T12:14:51;19.33;;;11.23;;
37595;SDS011;23442;48.182;11.552;2022-07-24T12:20:26;23.55;;;11.68;;
37595;SDS011;23442;48.182;11.552;2022-07-24T12:22:53;20.40;;;12.02;;
37595;SDS011;23442;48.182;11.552;2022-07-24T12:25:20;28.20;;;13.23;;
37595;SDS011;23442;48.182;11.552;2022-07-24T12:27:48;23.02;;;11.68;;
37595;SDS011;23442;48.182;11.552;2022-07-24T12:35:26;26.15;;;11.80;;
37595;SDS011;23442;48.182;11.552;2022-07-24T12:37:53;23.27;;;11.98;;
37595;SDS011;23442;48.182;11.552;2022-07-24T12:40:30;24.13;;;12.27;;
37595;SDS011;23442;48.182;11.552;2022-07-24T12:43:17;23.42;;;11.52;;
37595;SDS011;23442;48.182;11.552;2022-07-24T12:45:43;20.48;;;11.15;;
37595;SDS011;23442;48.182;11.552;2022-07-24T12:48:20;24.83;;;11.18;;
37595;SDS011;23442;48.182;11.552;2022-07-24T12:51:06;21.55;;;11.45;;
37595;SDS011;23442;48.182;11.552;2022-07-24T12:53:35;23.27;;;11.57;;
37595;SDS011;23442;48.182;11.552;2022-07-24T12:58:29;21.08;;;12.48;;
37595;SDS011;23442;48.182;11.552;2022-07-24T13:01:16;25.20;;;12.07;;
37595;SDS011;23442;48.182;11.552;2022-07-24T13:03:49;27.70;;;12.55;;
37595;SDS011;23442;48.182;11.552;2022-07-24T13:06:18;23.40;;;10.77;;
37595;SDS011;23442;48.182;11.552;2022-07-24T13:09:03;26.25;;;11.55;;
37595;SDS011;23442;48.182;11.552;2022-07-24T13:11:30;20.08;;;11.30;;
37595;SDS011;23442;48.182;11.552;2022-07-24T13:13:56;26.85;;;12.55;;
37595;SDS011;23442;48.182;11.552;2022-07-24T13:16:25;26.70;;;12.32;;
37595;SDS011;23442;48.182;11.552;2022-07-24T13:18:53;31.63;;;13.25;;
37595;SDS011;23442;48.182;11.552;2022-07-24T13:21:20;31.30;;;13.88;;
37595;SDS011;23442;48.182;11.552;2022-07-24T13:23:46;27.55;;;12.75;;
37595;SDS011;23442;48.182;11.552;2022-07-24T13:26:12;26.80;;;12.57;;
37595;SDS011;23442;48.182;11.552;2022-07-24T13:28:38;26.40;;;12.38;;
37595;SDS011;23442;48.182;11.552;2022-07-24T13:31:05;41.20;;;15.25;;
37595;SDS011;23442;48.182;11.552;2022-07-24T13:33:31;30.85;;;13.73;;
37595;SDS011;23442;48.182;11.552;2022-07-24T13:35:57;26.80;;;12.77;;
37595;SDS011;23442;48.182;11.552;2022-07-24T13:38:23;24.38;;;12.27;;
37595;SDS011;23442;48.182;11.552;2022-07-24T13:40:50;25.25;;;12.02;;
37595;SDS011;23442;48.182;11.552;2022-07-24T13:43:16;27.77;;;12.95;;
37595;SDS011;23442;48.182;11.552;2022-07-24T13:45:44;27.65;;;12.65;;
37595;SDS011;23442;48.182;11.552;2022-07-24T13:48:10;24.92;;;11.43;;
37595;SDS011;23442;48.182;11.552;2022-07-24T13:50:37;19.85;;;11.20;;
37595;SDS011;23442;48.182;11.552;2022-07-24T13:53:03;33.03;;;12.35;;
37595;SDS011;23442;48.182;11.552;2022-07-24T13:55:30;25.92;;;11.82;;
37595;SDS011;23442;48.182;11.552;2022-07-24T13:57:57;21.50;;;10.65;;
37595;SDS011;23442;48.182;11.552;2022-07-24T14:00:23;27.90;;;11.73;;
37595;SDS011;23442;48.182;11.552;2022-07-24T14:02:50;19.92;;;10.55;;
37595;SDS011;23442;48.182;11.552;2022-07-24T14:05:23;22.55;;;11.05;;
37595;SDS011;23442;48.182;11.552;2022-07-24T14:07:50;23.90;;;10.98;;
37595;SDS011;23442;48.182;11.552;2022-07-24T14:10:17;25.88;;;12.23;;
37595;SDS011;23442;48.182;11.552;2022-07-24T14:12:44;22.88;;;11.48;;
37595;SDS011;23442;48.182;11.552;2022-07-24T14:15:10;21.52;;;11.05;;
37595;SDS011;23442;48.182;11.552;2022-07-24T14:17:39;17.15;;;10.60;;
37595;SDS011;23442;48.182;11.552;2022-07-24T14:20:07;20.65;;;11.05;;
37595;SDS011;23442;48.182;11.552;2022-07-24T14:22:37;19.23;;;10.00;;
37595;SDS011;23442;48.182;11.552;2022-07-24T14:25:05;22.20;;;11.27;;
37595;SDS011;23442;48.182;11.552;2022-07-24T14:27:32;18.80;;;10.40;;
37595;SDS011;23442;48.182;11.552;2022-07-24T14:29:58;17.67;;;10.07;;
37595;SDS011;23442;48.182;11.552;2022-07-24T14:32:24;22.48;;;10.73;;
37595;SDS011;23442;48.182;11.552;2022-07-24T14:34:51;17.42;;;10.07;;
37595;SDS011;23442;48.182;11.552;2022-07-24T14:37:17;18.30;;;10.13;;
37595;SDS011;23442;48.182;11.552;2022-07-24T14:39:43;20.17;;;10.80;;
37595;SDS011;23442;48.182;11.552;2022-07-24T14:42:09;17.90;;;9.93;;
37595;SDS011;23442;48.182;11.552;2022-07-24T14:44:35;19.80;;;10.82;;
37595;SDS011;23442;48.182;11.552;2022-07-24T14:47:02;20.75;;;10.95;;
37595;SDS011;23442;48.182;11.552;2022-07-24T14:49:30;15.85;;;9.93;;
37595;SDS011;23442;48.182;11.552;2022-07-24T14:51:56;21.13;;;11.00;;
37595;SDS011;23442;48.182;11.552;2022-07-24T14:54:23;23.75;;;12.48;;
37595;SDS011;23442;48.182;11.552;2022-07-24T14:56:49;20.52;;;10.70;;
37595;SDS011;23442;48.182;11.552;2022-07-24T14:59:15;16.25;;;9.65;;
37595;SDS011;23442;48.182;11.552;2022-07-24T15:01:41;14.30;;;9.57;;
37595;SDS011;23442;48.182;11.552;2022-07-24T15:04:08;17.05;;;9.40;;